createdAt,value
2023-07-25T00:01:08.981Z,97137.44
2023-07-25T00:03:37.356Z,97138.13
2023-07-25T00:06:05.161Z,97139.00
2023-07-25T00:08:33.494Z,97139.92
2023-07-25T00:11:01.420Z,97143.30
2023-07-25T00:13:29.135Z,97152.34
2023-07-25T00:15:56.850Z,97150.40
2023-07-25T00:18:24.528Z,97148.12
2023-07-25T00:20:52.179Z,97148.20
2023-07-25T00:23:20.034Z,97144.58
2023-07-25T00:25:47.779Z,97144.35
2023-07-25T00:28:16.123Z,97144.23
2023-07-25T00:30:43.758Z,97147.83
2023-07-25T00:33:11.448Z,97148.45
2023-07-25T00:35:39.112Z,97147.29
2023-07-25T00:38:07.085Z,97143.37
2023-07-25T00:40:39.774Z,97136.18
2023-07-25T00:43:07.489Z,97133.92
2023-07-25T00:45:35.363Z,97130.66
2023-07-25T00:48:03.333Z,97131.98
2023-07-25T00:50:31.041Z,97131.20
2023-07-25T00:52:59.924Z,97126.03
2023-07-25T00:55:28.632Z,97124.84
2023-07-25T00:57:56.331Z,97127.40
2023-07-25T01:00:24.269Z,97126.31
2023-07-25T01:02:52.058Z,97129.02
2023-07-25T01:05:20.253Z,97125.39
2023-07-25T01:07:48.343Z,97122.50
2023-07-25T01:10:16.191Z,97128.90
2023-07-25T01:12:43.965Z,97139.15
2023-07-25T01:15:11.616Z,97139.74
2023-07-25T01:17:39.539Z,97137.27
2023-07-25T01:20:09.420Z,97138.35
2023-07-25T01:22:37.906Z,97140.91
2023-07-25T01:25:05.928Z,97141.61
2023-07-25T01:27:33.563Z,97140.92
2023-07-25T01:30:01.363Z,97138.02
2023-07-25T01:32:29.193Z,97133.23
2023-07-25T01:34:57.119Z,97133.25
2023-07-25T01:37:24.863Z,97138.70
2023-07-25T01:39:52.558Z,97135.75
2023-07-25T01:42:20.409Z,97142.91
2023-07-25T01:44:48.042Z,97150.84
2023-07-25T01:47:15.702Z,97145.23
2023-07-25T01:49:43.506Z,97154.21
2023-07-25T01:52:11.131Z,97155.16
2023-07-25T01:54:38.795Z,97163.44
2023-07-25T01:57:07.134Z,97167.14
2023-07-25T01:59:34.961Z,97167.23
2023-07-25T02:02:02.670Z,97168.41
2023-07-25T02:04:30.500Z,97167.90
2023-07-25T02:06:58.180Z,97169.67
2023-07-25T02:09:25.821Z,97170.48
2023-07-25T02:11:54.377Z,97166.59
2023-07-25T02:14:22.067Z,97165.68
2023-07-25T02:16:49.806Z,97172.44
2023-07-25T02:19:17.529Z,97173.09
2023-07-25T02:21:45.157Z,97177.13
2023-07-25T02:24:12.834Z,97183.61
2023-07-25T02:26:40.544Z,97183.19
2023-07-25T02:29:08.335Z,97191.41
2023-07-25T02:31:36.334Z,97198.79
2023-07-25T02:34:03.982Z,97189.69
2023-07-25T02:36:31.661Z,97182.63
2023-07-25T02:38:59.331Z,97178.56
2023-07-25T02:41:27.182Z,97177.77
2023-07-25T02:43:54.931Z,97175.65
2023-07-25T02:46:22.637Z,97171.59
2023-07-25T02:48:50.640Z,97170.95
2023-07-25T02:51:18.983Z,97170.91
2023-07-25T02:53:46.689Z,97175.36
2023-07-25T02:56:14.319Z,97176.16
2023-07-25T02:58:41.986Z,97175.00
2023-07-25T03:01:09.949Z,97174.56
2023-07-25T03:03:37.847Z,97176.55
2023-07-25T03:06:05.558Z,97171.72
2023-07-25T03:08:33.301Z,97175.59
2023-07-25T03:11:01.030Z,97180.06
2023-07-25T03:13:28.874Z,97181.59
2023-07-25T03:15:56.536Z,97190.20
2023-07-25T03:18:24.200Z,97194.31
2023-07-25T03:20:52.016Z,97201.90
2023-07-25T03:23:19.695Z,97203.81
2023-07-25T03:25:47.472Z,97204.91
2023-07-25T03:28:15.179Z,97203.70
2023-07-25T03:30:42.863Z,97218.12
2023-07-25T03:33:10.581Z,97223.70
2023-07-25T03:35:38.351Z,97214.86
2023-07-25T03:38:06.003Z,97206.95
2023-07-25T03:40:33.704Z,97196.53
2023-07-25T03:43:01.345Z,97200.21
2023-07-25T03:45:28.982Z,97201.98
2023-07-25T03:47:56.658Z,97198.27
2023-07-25T03:50:24.370Z,97189.88
2023-07-25T03:52:52.273Z,97192.77
2023-07-25T03:55:19.921Z,97194.20
2023-07-25T03:57:47.603Z,97186.16
2023-07-25T04:00:15.717Z,97187.02
2023-07-25T04:02:43.484Z,97185.27
2023-07-25T04:05:11.221Z,97188.20
2023-07-25T04:07:39.267Z,97197.05
2023-07-25T04:10:07.588Z,97200.23
2023-07-25T04:12:35.454Z,97204.94
2023-07-25T04:15:03.692Z,97213.50
2023-07-25T04:17:31.354Z,97218.91
2023-07-25T04:19:59.164Z,97223.40
2023-07-25T04:22:27.453Z,97218.40
2023-07-25T04:24:55.149Z,97212.89
2023-07-25T04:27:23.095Z,97213.25
2023-07-25T04:29:50.813Z,97204.34
2023-07-25T04:32:18.451Z,97197.20
2023-07-25T04:34:46.086Z,97179.16
2023-07-25T04:37:13.773Z,97185.41
2023-07-25T04:39:41.409Z,97192.64
2023-07-25T04:42:09.226Z,97189.84
2023-07-25T04:44:36.876Z,97193.44
2023-07-25T04:47:04.938Z,97197.08
2023-07-25T04:49:32.546Z,97198.80
2023-07-25T04:52:00.217Z,97207.97
2023-07-25T04:54:27.841Z,97209.14
2023-07-25T04:56:55.600Z,97212.20
2023-07-25T04:59:23.236Z,97214.14
2023-07-25T05:01:50.915Z,97203.58
2023-07-25T05:04:18.620Z,97200.66
2023-07-25T05:06:46.327Z,97195.30
2023-07-25T05:09:14.022Z,97198.98
2023-07-25T05:11:42.080Z,97199.13
2023-07-25T05:14:09.953Z,97192.98
2023-07-25T05:16:37.678Z,97183.42
2023-07-25T05:19:05.518Z,97172.81
2023-07-25T05:21:33.557Z,97176.98
2023-07-25T05:24:02.480Z,97177.71
2023-07-25T05:26:30.122Z,97181.11
2023-07-25T05:28:57.849Z,97186.63
2023-07-25T05:31:25.515Z,97193.27
2023-07-25T05:33:53.228Z,97184.12
2023-07-25T05:36:20.967Z,97178.91
2023-07-25T05:38:48.603Z,97172.39
2023-07-25T05:41:16.310Z,97172.74
2023-07-25T05:43:43.952Z,97176.35
2023-07-25T05:46:11.644Z,97178.89
2023-07-25T05:48:39.424Z,97173.25
2023-07-25T05:51:07.414Z,97178.17
2023-07-25T05:53:35.200Z,97184.85
2023-07-25T05:56:03.372Z,97182.80
2023-07-25T05:58:31.526Z,97183.92
2023-07-25T06:00:59.329Z,97184.63
2023-07-25T06:03:27.530Z,97191.28
2023-07-25T06:05:55.395Z,97190.14
2023-07-25T06:08:23.196Z,97196.03
2023-07-25T06:10:51.186Z,97200.86
2023-07-25T06:13:19.004Z,97202.48
2023-07-25T06:15:48.193Z,97200.73
2023-07-25T06:18:16.113Z,97190.35
2023-07-25T06:20:43.861Z,97199.30
2023-07-25T06:23:11.541Z,97196.77
2023-07-25T06:25:39.336Z,97197.28
2023-07-25T06:28:07.359Z,97200.83
2023-07-25T06:30:35.030Z,97204.91
2023-07-25T06:33:02.757Z,97206.26
2023-07-25T06:35:30.524Z,97198.38
2023-07-25T06:37:58.191Z,97189.85
2023-07-25T06:40:25.899Z,97186.21
2023-07-25T06:42:53.576Z,97183.91
2023-07-25T06:45:21.225Z,97184.45
2023-07-25T06:47:49.092Z,97183.39
2023-07-25T06:50:17.244Z,97189.21
2023-07-25T06:52:44.906Z,97189.16
2023-07-25T06:55:12.686Z,97196.38
2023-07-25T06:57:40.323Z,97198.86
2023-07-25T07:00:09.266Z,97193.63
2023-07-25T07:02:37.218Z,97188.25
2023-07-25T07:05:19.374Z,97190.31
2023-07-25T07:07:54.454Z,97185.11
2023-07-25T07:10:22.090Z,97183.17
2023-07-25T07:12:49.966Z,97175.88
2023-07-25T07:15:17.691Z,97173.81
2023-07-25T07:17:45.932Z,97171.04
2023-07-25T07:20:13.592Z,97180.88
2023-07-25T07:22:41.331Z,97179.94
2023-07-25T07:25:09.727Z,97175.10
2023-07-25T07:27:37.369Z,97176.45
2023-07-25T07:30:05.665Z,97169.44
2023-07-25T07:32:33.565Z,97171.59
2023-07-25T07:35:01.209Z,97171.80
2023-07-25T07:37:28.917Z,97164.41
2023-07-25T07:39:56.568Z,97146.11
2023-07-25T07:42:24.265Z,97133.05
2023-07-25T07:44:52.192Z,97124.89
2023-07-25T07:47:19.916Z,97122.95
2023-07-25T07:49:47.590Z,97134.63
2023-07-25T07:52:20.136Z,97159.14
2023-07-25T07:54:57.390Z,97166.55
2023-07-25T07:57:25.057Z,97184.39
2023-07-25T07:59:53.401Z,97191.33
2023-07-25T08:02:21.230Z,97198.08
2023-07-25T08:04:49.052Z,97190.45
2023-07-25T08:07:16.843Z,97183.81
2023-07-25T08:09:44.597Z,97180.98
2023-07-25T08:12:12.272Z,97180.32
2023-07-25T08:14:39.953Z,97182.86
2023-07-25T08:17:07.948Z,97176.88
2023-07-25T08:19:35.579Z,97180.38
2023-07-25T08:22:03.375Z,97176.16
2023-07-25T08:24:31.393Z,97169.41
2023-07-25T08:27:00.433Z,97174.35
2023-07-25T08:29:28.213Z,97172.62
2023-07-25T08:31:55.927Z,97170.11
2023-07-25T08:34:24.041Z,97171.30
2023-07-25T08:36:51.685Z,97166.39
2023-07-25T08:39:19.442Z,97157.09
2023-07-25T08:41:48.956Z,97158.04
2023-07-25T08:44:16.603Z,97154.46
2023-07-25T08:46:45.900Z,97145.13
2023-07-25T08:49:15.963Z,97136.17
2023-07-25T08:51:44.927Z,97126.63
2023-07-25T08:54:31.223Z,97124.98
2023-07-25T08:56:59.322Z,97123.36
2023-07-25T08:59:27.208Z,97129.42
2023-07-25T09:01:55.169Z,97136.75
2023-07-25T09:04:24.669Z,97141.41
2023-07-25T09:06:52.907Z,97150.77
2023-07-25T09:09:20.637Z,97150.80
2023-07-25T09:11:48.344Z,97148.13
2023-07-25T09:14:16.011Z,97145.79
2023-07-25T09:16:43.845Z,97145.08
2023-07-25T09:19:12.455Z,97139.64
2023-07-25T09:21:51.928Z,97131.81
2023-07-25T09:24:19.954Z,97131.29
2023-07-25T09:26:51.666Z,97133.04
2023-07-25T09:29:19.639Z,97127.91
2023-07-25T09:31:47.717Z,97122.48
2023-07-25T09:34:18.993Z,97125.73
2023-07-25T09:36:48.719Z,97127.73
2023-07-25T09:39:16.997Z,97122.61
2023-07-25T09:41:46.680Z,97120.68
2023-07-25T09:44:14.606Z,97124.61
2023-07-25T09:46:51.707Z,97126.11
2023-07-25T09:49:23.089Z,97122.45
2023-07-25T09:52:01.000Z,97115.06
2023-07-25T09:54:29.021Z,97117.27
2023-07-25T09:56:56.678Z,97116.45
2023-07-25T09:59:24.418Z,97118.09
2023-07-25T10:01:52.282Z,97120.20
2023-07-25T10:04:20.884Z,97114.58
2023-07-25T10:06:48.817Z,97104.89
2023-07-25T10:09:16.505Z,97099.45
2023-07-25T10:11:44.169Z,97105.17
2023-07-25T10:14:11.998Z,97106.66
2023-07-25T10:16:39.699Z,97105.02
2023-07-25T10:19:07.586Z,97101.10
2023-07-25T10:21:51.694Z,97096.78
2023-07-25T10:24:20.827Z,97100.48
2023-07-25T10:27:01.227Z,97107.87
2023-07-25T10:29:40.163Z,97105.38
2023-07-25T10:32:11.655Z,97109.91
2023-07-25T10:34:53.831Z,97108.85
2023-07-25T10:37:29.615Z,97106.73
2023-07-25T10:40:04.879Z,97100.70
2023-07-25T10:45:28.167Z,97102.64
2023-07-25T10:48:01.179Z,97097.92
2023-07-25T10:50:51.150Z,97090.43
2023-07-25T10:53:22.946Z,97081.83
2023-07-25T10:56:09.390Z,97083.20
2023-07-25T10:58:39.595Z,97081.64
2023-07-25T11:01:07.920Z,97068.94
2023-07-25T11:03:37.146Z,97068.57
2023-07-25T11:06:07.922Z,97063.86
2023-07-25T11:08:35.980Z,97063.55
2023-07-25T11:11:04.471Z,97059.13
2023-07-25T11:13:36.608Z,97056.45
2023-07-25T11:16:05.186Z,97055.91
2023-07-25T11:18:38.601Z,97050.02
2023-07-25T11:21:08.581Z,97050.39
2023-07-25T11:23:36.299Z,97047.59
2023-07-25T11:26:05.195Z,97049.84
2023-07-25T11:28:32.958Z,97046.92
2023-07-25T11:31:00.856Z,97042.44
2023-07-25T11:33:29.097Z,97039.88
2023-07-25T11:35:57.201Z,97033.72
2023-07-25T11:38:25.016Z,97037.54
2023-07-25T11:40:57.666Z,97030.79
2023-07-25T11:43:29.348Z,97036.22
2023-07-25T11:45:57.380Z,97036.84
2023-07-25T11:48:25.212Z,97034.09
2023-07-25T11:50:52.926Z,97036.08
2023-07-25T11:53:21.623Z,97039.90
2023-07-25T11:55:52.110Z,97042.14
2023-07-25T11:58:20.439Z,97043.44
2023-07-25T12:00:55.565Z,97047.30
2023-07-25T12:03:24.827Z,97053.39
2023-07-25T12:05:58.004Z,97053.11
2023-07-25T12:08:36.769Z,97057.45
2023-07-25T12:11:05.602Z,97060.86
2023-07-25T12:13:33.546Z,97069.15
2023-07-25T12:16:03.122Z,97076.42
2023-07-25T12:18:35.971Z,97086.75
2023-07-25T12:21:04.931Z,97097.61
2023-07-25T12:23:40.007Z,97101.50
2023-07-25T12:26:12.498Z,97103.15
2023-07-25T12:28:42.971Z,97110.90
2023-07-25T12:31:11.305Z,97109.77
2023-07-25T12:33:39.678Z,97106.73
2023-07-25T12:36:07.631Z,97106.38
2023-07-25T12:38:35.476Z,97096.88
2023-07-25T12:41:04.057Z,97087.95
2023-07-25T12:43:31.847Z,97079.19
2023-07-25T12:45:59.792Z,97069.75
2023-07-25T12:48:27.492Z,97060.95
2023-07-25T12:50:55.342Z,97066.27
2023-07-25T12:53:23.054Z,97061.86
2023-07-25T12:55:50.675Z,97054.83
2023-07-25T12:58:18.534Z,97053.66
2023-07-25T13:00:46.239Z,97046.80
2023-07-25T13:03:14.042Z,97035.99
2023-07-25T13:05:42.996Z,97037.71
2023-07-25T13:08:10.721Z,97044.83
2023-07-25T13:10:38.384Z,97041.54
2023-07-25T13:13:06.092Z,97037.02
2023-07-25T13:15:35.113Z,97036.98
2023-07-25T13:18:02.841Z,97029.26
2023-07-25T13:20:30.685Z,97028.45
2023-07-25T13:22:58.371Z,97027.10
2023-07-25T13:25:26.168Z,97027.44
2023-07-25T13:27:53.999Z,97031.40
2023-07-25T13:30:21.706Z,97030.43
2023-07-25T13:32:49.473Z,97036.16
2023-07-25T13:35:17.534Z,97036.46
2023-07-25T13:37:45.323Z,97027.83
2023-07-25T13:40:13.273Z,97029.02
2023-07-25T13:42:41.265Z,97020.34
2023-07-25T13:45:09.714Z,97021.04
2023-07-25T13:47:37.588Z,97021.81
2023-07-25T13:50:05.678Z,97032.03
2023-07-25T13:52:33.490Z,97039.37
2023-07-25T13:55:01.193Z,97044.65
2023-07-25T13:57:32.765Z,97042.42
2023-07-25T14:00:01.939Z,97051.45
2023-07-25T14:02:29.661Z,97064.92
2023-07-25T14:04:57.380Z,97075.72
2023-07-25T14:07:25.335Z,97078.98
2023-07-25T14:09:52.993Z,97077.98
2023-07-25T14:12:20.782Z,97085.79
2023-07-25T14:14:48.489Z,97095.98
2023-07-25T14:17:16.179Z,97099.66
2023-07-25T14:19:44.107Z,97105.92
2023-07-25T14:22:11.812Z,97108.38
2023-07-25T14:24:39.552Z,97106.60
2023-07-25T14:27:07.448Z,97104.63
2023-07-25T14:29:35.243Z,97098.34
2023-07-25T14:32:02.982Z,97103.22
2023-07-25T14:34:30.642Z,97101.42
2023-07-25T14:36:58.466Z,97099.71
2023-07-25T14:39:26.122Z,97100.66
2023-07-25T14:41:53.857Z,97099.98
2023-07-25T14:44:21.658Z,97092.70
2023-07-25T14:46:49.384Z,97090.05
2023-07-25T14:49:17.219Z,97093.73
2023-07-25T14:51:45.011Z,97094.55
2023-07-25T14:54:12.687Z,97095.30
2023-07-25T14:56:40.493Z,97093.19
2023-07-25T14:59:08.300Z,97092.84
2023-07-25T15:01:36.124Z,97093.85
2023-07-25T15:04:04.033Z,97091.77
2023-07-25T15:06:31.990Z,97087.29
2023-07-25T15:08:59.890Z,97090.02
2023-07-25T15:11:27.770Z,97093.66
2023-07-25T15:13:55.429Z,97092.80
2023-07-25T15:16:23.216Z,97096.92
2023-07-25T15:18:50.923Z,97097.98
2023-07-25T15:21:18.637Z,97092.73
2023-07-25T15:23:46.293Z,97090.79
2023-07-25T15:26:14.051Z,97088.42
2023-07-25T15:28:41.706Z,97087.59
2023-07-25T15:31:09.368Z,97087.71
2023-07-25T15:33:37.284Z,97082.00
2023-07-25T15:36:05.230Z,97081.52
2023-07-25T15:38:33.942Z,97075.70
2023-07-25T15:41:01.624Z,97072.66
2023-07-25T15:43:29.245Z,97068.31
2023-07-25T15:45:56.910Z,97066.36
2023-07-25T15:48:24.537Z,97065.23
2023-07-25T15:50:52.179Z,97063.89
2023-07-25T15:53:19.836Z,97059.17
2023-07-25T15:55:48.031Z,97051.98
2023-07-25T15:58:15.668Z,97049.74
2023-07-25T16:00:43.481Z,97050.48
2023-07-25T16:03:11.452Z,97041.02
2023-07-25T16:05:39.692Z,97046.42
2023-07-25T16:08:07.428Z,97045.17
2023-07-25T16:10:35.072Z,97043.96
2023-07-25T16:13:03.358Z,97046.94
2023-07-25T16:15:33.513Z,97050.70
2023-07-25T16:18:01.587Z,97051.36
2023-07-25T16:20:29.519Z,97051.16
2023-07-25T16:22:57.210Z,97047.84
2023-07-25T16:25:25.362Z,97041.02
2023-07-25T16:27:53.264Z,97044.90
2023-07-25T16:30:20.971Z,97049.17
2023-07-25T16:32:48.671Z,97050.89
2023-07-25T16:35:16.503Z,97056.23
2023-07-25T16:37:44.272Z,97062.96
2023-07-25T16:40:12.065Z,97067.23
2023-07-25T16:42:41.401Z,97064.27
2023-07-25T16:45:09.439Z,97059.70
2023-07-25T16:47:37.172Z,97051.92
2023-07-25T16:50:05.370Z,97061.95
2023-07-25T16:52:35.699Z,97050.52
2023-07-25T16:55:03.978Z,97043.73
2023-07-25T16:57:31.936Z,97038.35
2023-07-25T16:59:59.605Z,97033.03
2023-07-25T17:02:27.469Z,97032.48
2023-07-25T17:04:56.151Z,97031.76
2023-07-25T17:07:23.844Z,97037.33
2023-07-25T17:09:51.500Z,97039.77
2023-07-25T17:12:19.260Z,97041.15
2023-07-25T17:14:46.924Z,97040.21
2023-07-25T17:17:14.593Z,97040.55
2023-07-25T17:19:42.234Z,97039.77
2023-07-25T17:22:09.879Z,97032.95
2023-07-25T17:24:39.264Z,97030.17
2023-07-25T17:27:07.200Z,97019.20
2023-07-25T17:29:34.870Z,97021.40
2023-07-25T17:32:03.195Z,97026.61
2023-07-25T17:34:31.078Z,97038.52
2023-07-25T17:36:58.984Z,97042.48
2023-07-25T17:39:26.707Z,97045.56
2023-07-25T17:41:54.592Z,97044.54
2023-07-25T17:44:22.295Z,97045.95
2023-07-25T17:46:50.128Z,97049.14
2023-07-25T17:49:20.527Z,97043.95
2023-07-25T17:51:48.954Z,97053.07
2023-07-25T17:54:16.620Z,97050.38
2023-07-25T17:56:44.407Z,97057.80
2023-07-25T17:59:12.264Z,97059.84
2023-07-25T18:01:39.932Z,97067.12
2023-07-25T18:04:07.575Z,97063.55
2023-07-25T18:06:35.325Z,97067.66
2023-07-25T18:09:03.071Z,97071.26
2023-07-25T18:11:31.106Z,97075.98
2023-07-25T18:13:59.146Z,97076.77
2023-07-25T18:16:26.982Z,97076.86
2023-07-25T18:18:54.643Z,97074.63
2023-07-25T18:21:22.321Z,97072.85
2023-07-25T18:23:50.175Z,97071.68
2023-07-25T18:26:17.959Z,97071.25
2023-07-25T18:28:45.596Z,97071.63
2023-07-25T18:31:13.291Z,97075.09
2023-07-25T18:33:41.177Z,97080.10
2023-07-25T18:36:08.992Z,97076.67
2023-07-25T18:38:36.717Z,97069.91
2023-07-25T18:41:04.462Z,97070.90
2023-07-25T18:43:32.225Z,97071.69
2023-07-25T18:46:00.072Z,97077.51
2023-07-25T18:48:27.723Z,97083.11
2023-07-25T18:50:55.483Z,97086.69
2023-07-25T18:53:23.150Z,97094.02
2023-07-25T18:55:51.254Z,97100.53
2023-07-25T18:58:18.942Z,97107.26
2023-07-25T19:00:49.008Z,97113.33
2023-07-25T19:03:16.953Z,97117.60
2023-07-25T19:05:44.694Z,97114.87
2023-07-25T19:08:12.380Z,97110.97
2023-07-25T19:10:40.324Z,97111.83
2023-07-25T19:13:08.001Z,97104.27
2023-07-25T19:15:35.620Z,97106.34
2023-07-25T19:18:03.471Z,97111.85
2023-07-25T19:20:31.234Z,97119.48
2023-07-25T19:23:00.497Z,97126.73
2023-07-25T19:25:32.779Z,97138.61
2023-07-25T19:28:01.166Z,97141.69
2023-07-25T19:30:29.082Z,97153.94
2023-07-25T19:32:57.107Z,97165.31
2023-07-25T19:35:24.842Z,97167.01
2023-07-25T19:37:52.636Z,97163.45
2023-07-25T19:40:20.362Z,97166.23
2023-07-25T19:42:48.051Z,97170.34
2023-07-25T19:45:15.835Z,97178.15
2023-07-25T19:47:43.584Z,97178.23
2023-07-25T19:50:11.809Z,97173.02
2023-07-25T19:52:39.543Z,97171.23
2023-07-25T19:55:07.586Z,97176.55
2023-07-25T19:57:38.563Z,97172.64
2023-07-25T20:00:07.559Z,97168.09
2023-07-25T20:02:35.495Z,97163.91
2023-07-25T20:05:03.339Z,97157.43
2023-07-25T20:07:30.971Z,97148.85
2023-07-25T20:09:58.636Z,97146.40
2023-07-25T20:12:26.674Z,97149.98
2023-07-25T20:14:54.344Z,97155.81
2023-07-25T20:17:22.079Z,97161.34
2023-07-25T20:19:49.730Z,97164.19
2023-07-25T20:22:17.394Z,97163.55
2023-07-25T20:24:45.143Z,97160.08
2023-07-25T20:27:12.928Z,97159.48
2023-07-25T20:29:40.569Z,97158.20
2023-07-25T20:32:09.073Z,97151.03
2023-07-25T20:34:36.812Z,97151.55
2023-07-25T20:37:04.759Z,97150.28
2023-07-25T20:39:32.483Z,97158.89
2023-07-25T20:42:00.157Z,97167.55
2023-07-25T20:44:27.825Z,97165.08
2023-07-25T20:46:55.646Z,97173.60
2023-07-25T20:49:23.366Z,97179.55
2023-07-25T20:51:51.280Z,97188.71
2023-07-25T20:54:19.228Z,97187.02
2023-07-25T20:56:47.155Z,97188.77
2023-07-25T20:59:15.140Z,97182.44
2023-07-25T21:01:42.989Z,97176.70
2023-07-25T21:04:10.696Z,97174.07
2023-07-25T21:06:38.342Z,97173.11
2023-07-25T21:09:06.282Z,97165.75
2023-07-25T21:11:33.943Z,97167.83
2023-07-25T21:14:01.609Z,97171.89
2023-07-25T21:16:31.206Z,97176.38
2023-07-25T21:18:59.180Z,97181.62
2023-07-25T21:21:26.834Z,97181.64
2023-07-25T21:23:54.511Z,97179.13
2023-07-25T21:26:22.160Z,97176.90
2023-07-25T21:28:49.832Z,97176.19
2023-07-25T21:31:17.483Z,97182.31
2023-07-25T21:33:45.158Z,97185.45
2023-07-25T21:36:14.364Z,97184.18
2023-07-25T21:38:42.706Z,97180.43
2023-07-25T21:41:15.582Z,97181.08
2023-07-25T21:43:43.584Z,97189.13
2023-07-25T21:46:11.359Z,97186.44
2023-07-25T21:48:39.248Z,97179.80
2023-07-25T21:51:07.634Z,97178.86
2023-07-25T21:53:35.344Z,97180.11
2023-07-25T21:56:03.068Z,97178.29
2023-07-25T21:58:30.892Z,97177.63
2023-07-25T22:00:59.028Z,97174.41
2023-07-25T22:03:29.247Z,97170.27
2023-07-25T22:05:58.022Z,97173.39
2023-07-25T22:08:25.767Z,97176.30
2023-07-25T22:10:53.724Z,97172.35
2023-07-25T22:13:21.630Z,97169.00
2023-07-25T22:15:49.461Z,97164.41
2023-07-25T22:18:17.179Z,97165.00
2023-07-25T22:20:51.757Z,97164.06
2023-07-25T22:23:21.464Z,97168.19
2023-07-25T22:25:49.472Z,97159.91
2023-07-25T22:28:17.140Z,97158.87
2023-07-25T22:30:45.068Z,97158.55
2023-07-25T22:33:12.784Z,97155.92
2023-07-25T22:35:40.424Z,97148.08
2023-07-25T22:38:08.063Z,97141.48
2023-07-25T22:40:35.800Z,97139.92
2023-07-25T22:43:03.519Z,97143.98
2023-07-25T22:45:31.253Z,97135.30
2023-07-25T22:47:59.010Z,97139.70
2023-07-25T22:50:26.797Z,97141.50
2023-07-25T22:52:54.766Z,97140.13
2023-07-25T22:55:22.643Z,97135.94
2023-07-25T22:57:50.276Z,97135.27
2023-07-25T23:00:18.026Z,97137.61
2023-07-25T23:02:45.864Z,97139.05
2023-07-25T23:05:13.674Z,97143.94
2023-07-25T23:07:41.370Z,97149.54
2023-07-25T23:10:09.672Z,97151.23
2023-07-25T23:12:37.314Z,97156.73
2023-07-25T23:15:05.811Z,97157.23
2023-07-25T23:17:33.538Z,97163.61
2023-07-25T23:20:01.208Z,97161.01
2023-07-25T23:22:28.878Z,97160.29
2023-07-25T23:24:57.445Z,97157.96
2023-07-25T23:27:25.231Z,97162.84
2023-07-25T23:29:53.164Z,97165.34
2023-07-25T23:32:20.956Z,97168.36
2023-07-25T23:34:50.556Z,97177.45
2023-07-25T23:37:18.288Z,97174.41
2023-07-25T23:39:46.314Z,97178.08
2023-07-25T23:42:15.049Z,97182.48
2023-07-25T23:44:42.731Z,97189.13
2023-07-25T23:47:11.836Z,97190.14
2023-07-25T23:49:39.737Z,97193.25
2023-07-25T23:52:08.011Z,97196.11
2023-07-25T23:54:35.739Z,97204.96
2023-07-25T23:57:04.566Z,97212.08
2023-07-25T23:59:32.498Z,97216.27
